sensor_id;sensor_type;location;lat;lon;timestamp;P1;durP1;ratioP1;P2;durP2;ratioP2
51495;SDS011;37572;52.094;4.870;2023-06-01T00:00:29;16.30;;;7.22;;
51495;SDS011;37572;52.094;4.870;2023-06-01T00:02:54;14.82;;;6.57;;
51495;SDS011;37572;52.094;4.870;2023-06-01T00:05:20;15.00;;;8.15;;
51495;SDS011;37572;52.094;4.870;2023-06-01T00:07:45;15.23;;;7.28;;
51495;SDS011;37572;52.094;4.870;2023-06-01T00:10:11;14.40;;;6.87;;
51495;SDS011;37572;52.094;4.870;2023-06-01T00:12:36;13.97;;;7.27;;
51495;SDS011;37572;52.094;4.870;2023-06-01T00:15:01;12.67;;;6.73;;
51495;SDS011;37572;52.094;4.870;2023-06-01T00:17:27;14.13;;;6.88;;
51495;SDS011;37572;52.094;4.870;2023-06-01T00:19:53;16.48;;;7.40;;
51495;SDS011;37572;52.094;4.870;2023-06-01T00:22:19;15.30;;;7.10;;
51495;SDS011;37572;52.094;4.870;2023-06-01T00:24:44;14.23;;;7.03;;
51495;SDS011;37572;52.094;4.870;2023-06-01T00:27:10;13.77;;;7.45;;
51495;SDS011;37572;52.094;4.870;2023-06-01T00:29:35;12.38;;;6.38;;
51495;SDS011;37572;52.094;4.870;2023-06-01T00:32:01;16.13;;;7.05;;
51495;SDS011;37572;52.094;4.870;2023-06-01T00:34:26;14.13;;;6.50;;
51495;SDS011;37572;52.094;4.870;2023-06-01T00:36:51;14.07;;;7.00;;
51495;SDS011;37572;52.094;4.870;2023-06-01T00:39:17;14.38;;;6.97;;
51495;SDS011;37572;52.094;4.870;2023-06-01T00:41:42;13.35;;;6.40;;
51495;SDS011;37572;52.094;4.870;2023-06-01T00:44:07;15.17;;;6.43;;
51495;SDS011;37572;52.094;4.870;2023-06-01T00:46:32;11.07;;;6.13;;
51495;SDS011;37572;52.094;4.870;2023-06-01T00:48:59;12.43;;;6.18;;
51495;SDS011;37572;52.094;4.870;2023-06-01T00:51:24;14.38;;;7.22;;
51495;SDS011;37572;52.094;4.870;2023-06-01T00:53:50;11.88;;;6.72;;
51495;SDS011;37572;52.094;4.870;2023-06-01T00:56:16;15.07;;;6.47;;
51495;SDS011;37572;52.094;4.870;2023-06-01T00:58:42;12.60;;;6.80;;
51495;SDS011;37572;52.094;4.870;2023-06-01T01:01:08;14.05;;;7.13;;
51495;SDS011;37572;52.094;4.870;2023-06-01T01:03:44;16.10;;;6.80;;
51495;SDS011;37572;52.094;4.870;2023-06-01T01:06:15;13.40;;;6.65;;
51495;SDS011;37572;52.094;4.870;2023-06-01T01:08:50;13.90;;;6.60;;
51495;SDS011;37572;52.094;4.870;2023-06-01T01:11:26;14.32;;;6.32;;
51495;SDS011;37572;52.094;4.870;2023-06-01T01:14:11;11.52;;;6.13;;
51495;SDS011;37572;52.094;4.870;2023-06-01T01:16:49;10.98;;;6.47;;
51495;SDS011;37572;52.094;4.870;2023-06-01T01:19:29;12.73;;;6.25;;
51495;SDS011;37572;52.094;4.870;2023-06-01T01:31:01;15.00;;;7.65;;
51495;SDS011;37572;52.094;4.870;2023-06-01T01:33:29;11.27;;;6.22;;
51495;SDS011;37572;52.094;4.870;2023-06-01T01:35:56;14.32;;;6.93;;
51495;SDS011;37572;52.094;4.870;2023-06-01T01:38:21;12.65;;;7.18;;
51495;SDS011;37572;52.094;4.870;2023-06-01T01:40:47;13.27;;;6.30;;
51495;SDS011;37572;52.094;4.870;2023-06-01T01:43:14;18.27;;;7.38;;
51495;SDS011;37572;52.094;4.870;2023-06-01T01:45:40;15.98;;;7.38;;
51495;SDS011;37572;52.094;4.870;2023-06-01T01:50:58;17.60;;;7.75;;
51495;SDS011;37572;52.094;4.870;2023-06-01T01:53:28;14.18;;;7.22;;
51495;SDS011;37572;52.094;4.870;2023-06-01T01:55:55;15.95;;;6.80;;
51495;SDS011;37572;52.094;4.870;2023-06-01T01:58:21;11.23;;;6.93;;
51495;SDS011;37572;52.094;4.870;2023-06-01T02:00:48;16.30;;;7.55;;
51495;SDS011;37572;52.094;4.870;2023-06-01T02:03:15;13.80;;;7.05;;
51495;SDS011;37572;52.094;4.870;2023-06-01T02:05:42;12.32;;;7.07;;
51495;SDS011;37572;52.094;4.870;2023-06-01T02:08:07;13.63;;;7.90;;
51495;SDS011;37572;52.094;4.870;2023-06-01T02:10:33;13.20;;;7.28;;
51495;SDS011;37572;52.094;4.870;2023-06-01T02:12:58;13.63;;;7.03;;
51495;SDS011;37572;52.094;4.870;2023-06-01T02:15:24;11.55;;;5.82;;
51495;SDS011;37572;52.094;4.870;2023-06-01T02:17:49;14.15;;;6.45;;
51495;SDS011;37572;52.094;4.870;2023-06-01T02:20:16;14.48;;;6.80;;
51495;SDS011;37572;52.094;4.870;2023-06-01T02:22:42;15.20;;;6.78;;
51495;SDS011;37572;52.094;4.870;2023-06-01T02:25:07;14.45;;;7.07;;
51495;SDS011;37572;52.094;4.870;2023-06-01T02:27:33;12.73;;;6.95;;
51495;SDS011;37572;52.094;4.870;2023-06-01T02:29:59;12.57;;;6.68;;
51495;SDS011;37572;52.094;4.870;2023-06-01T02:32:24;14.35;;;7.10;;
51495;SDS011;37572;52.094;4.870;2023-06-01T02:34:50;12.82;;;6.82;;
51495;SDS011;37572;52.094;4.870;2023-06-01T02:37:15;14.73;;;7.37;;
51495;SDS011;37572;52.094;4.870;2023-06-01T02:39:41;13.00;;;7.00;;
51495;SDS011;37572;52.094;4.870;2023-06-01T02:42:07;12.53;;;6.80;;
51495;SDS011;37572;52.094;4.870;2023-06-01T02:44:32;14.18;;;8.60;;
51495;SDS011;37572;52.094;4.870;2023-06-01T02:46:58;13.93;;;7.47;;
51495;SDS011;37572;52.094;4.870;2023-06-01T02:49:23;13.67;;;6.77;;
51495;SDS011;37572;52.094;4.870;2023-06-01T02:51:48;13.63;;;6.97;;
51495;SDS011;37572;52.094;4.870;2023-06-01T02:54:14;11.77;;;7.17;;
51495;SDS011;37572;52.094;4.870;2023-06-01T02:56:39;17.55;;;7.55;;
51495;SDS011;37572;52.094;4.870;2023-06-01T02:59:04;12.90;;;6.82;;
51495;SDS011;37572;52.094;4.870;2023-06-01T03:01:31;13.70;;;7.30;;
51495;SDS011;37572;52.094;4.870;2023-06-01T03:04:00;15.75;;;8.00;;
51495;SDS011;37572;52.094;4.870;2023-06-01T03:06:29;17.33;;;8.25;;
51495;SDS011;37572;52.094;4.870;2023-06-01T03:08:56;15.10;;;6.93;;
51495;SDS011;37572;52.094;4.870;2023-06-01T03:11:23;13.98;;;5.82;;
51495;SDS011;37572;52.094;4.870;2023-06-01T03:13:48;14.50;;;6.18;;
51495;SDS011;37572;52.094;4.870;2023-06-01T03:16:14;11.47;;;5.37;;
51495;SDS011;37572;52.094;4.870;2023-06-01T03:18:41;11.95;;;6.75;;
51495;SDS011;37572;52.094;4.870;2023-06-01T03:21:06;11.68;;;5.72;;
51495;SDS011;37572;52.094;4.870;2023-06-01T03:23:32;11.03;;;6.40;;
51495;SDS011;37572;52.094;4.870;2023-06-01T03:25:57;12.63;;;6.10;;
51495;SDS011;37572;52.094;4.870;2023-06-01T03:28:22;12.30;;;5.37;;
51495;SDS011;37572;52.094;4.870;2023-06-01T03:30:48;9.00;;;5.22;;
51495;SDS011;37572;52.094;4.870;2023-06-01T03:33:13;12.17;;;5.57;;
51495;SDS011;37572;52.094;4.870;2023-06-01T03:35:38;12.67;;;5.90;;
51495;SDS011;37572;52.094;4.870;2023-06-01T03:38:04;17.70;;;6.90;;
51495;SDS011;37572;52.094;4.870;2023-06-01T03:40:29;11.98;;;6.55;;
51495;SDS011;37572;52.094;4.870;2023-06-01T03:42:54;13.93;;;6.13;;
51495;SDS011;37572;52.094;4.870;2023-06-01T03:45:20;13.27;;;6.63;;
51495;SDS011;37572;52.094;4.870;2023-06-01T03:47:45;14.33;;;6.37;;
51495;SDS011;37572;52.094;4.870;2023-06-01T03:50:10;16.80;;;6.70;;
51495;SDS011;37572;52.094;4.870;2023-06-01T03:52:36;14.27;;;6.40;;
51495;SDS011;37572;52.094;4.870;2023-06-01T03:55:02;14.73;;;6.82;;
51495;SDS011;37572;52.094;4.870;2023-06-01T03:57:33;13.63;;;6.53;;
51495;SDS011;37572;52.094;4.870;2023-06-01T03:59:59;14.77;;;7.47;;
51495;SDS011;37572;52.094;4.870;2023-06-01T04:02:25;15.57;;;7.15;;
51495;SDS011;37572;52.094;4.870;2023-06-01T04:04:51;15.55;;;6.15;;
51495;SDS011;37572;52.094;4.870;2023-06-01T04:07:16;12.98;;;6.07;;
51495;SDS011;37572;52.094;4.870;2023-06-01T04:09:47;13.63;;;6.55;;
51495;SDS011;37572;52.094;4.870;2023-06-01T04:12:13;14.20;;;6.88;;
51495;SDS011;37572;52.094;4.870;2023-06-01T04:14:39;14.93;;;6.45;;
51495;SDS011;37572;52.094;4.870;2023-06-01T04:17:05;13.05;;;6.80;;
51495;SDS011;37572;52.094;4.870;2023-06-01T04:19:31;15.23;;;6.85;;
51495;SDS011;37572;52.094;4.870;2023-06-01T04:21:57;13.80;;;6.90;;
51495;SDS011;37572;52.094;4.870;2023-06-01T04:24:22;15.23;;;7.47;;
51495;SDS011;37572;52.094;4.870;2023-06-01T04:26:47;14.73;;;7.07;;
51495;SDS011;37572;52.094;4.870;2023-06-01T04:29:16;16.63;;;7.88;;
51495;SDS011;37572;52.094;4.870;2023-06-01T04:31:44;13.50;;;7.75;;
51495;SDS011;37572;52.094;4.870;2023-06-01T04:34:12;16.38;;;8.55;;
51495;SDS011;37572;52.094;4.870;2023-06-01T04:36:38;13.45;;;7.93;;
51495;SDS011;37572;52.094;4.870;2023-06-01T04:39:07;13.35;;;7.35;;
51495;SDS011;37572;52.094;4.870;2023-06-01T04:41:34;14.90;;;6.97;;
51495;SDS011;37572;52.094;4.870;2023-06-01T04:44:03;16.27;;;8.55;;
51495;SDS011;37572;52.094;4.870;2023-06-01T04:46:32;14.18;;;7.10;;
51495;SDS011;37572;52.094;4.870;2023-06-01T04:48:57;14.80;;;8.30;;
51495;SDS011;37572;52.094;4.870;2023-06-01T04:51:25;17.23;;;8.10;;
51495;SDS011;37572;52.094;4.870;2023-06-01T04:53:52;16.55;;;8.23;;
51495;SDS011;37572;52.094;4.870;2023-06-01T04:56:19;14.82;;;7.05;;
51495;SDS011;37572;52.094;4.870;2023-06-01T04:58:49;15.73;;;7.60;;
51495;SDS011;37572;52.094;4.870;2023-06-01T05:01:15;14.27;;;7.47;;
51495;SDS011;37572;52.094;4.870;2023-06-01T05:03:44;13.23;;;7.43;;
51495;SDS011;37572;52.094;4.870;2023-06-01T05:06:11;16.95;;;7.68;;
51495;SDS011;37572;52.094;4.870;2023-06-01T05:08:41;16.80;;;7.47;;
51495;SDS011;37572;52.094;4.870;2023-06-01T05:11:08;15.20;;;7.45;;
51495;SDS011;37572;52.094;4.870;2023-06-01T05:13:34;14.52;;;6.80;;
51495;SDS011;37572;52.094;4.870;2023-06-01T05:16:00;12.38;;;7.65;;
51495;SDS011;37572;52.094;4.870;2023-06-01T05:18:26;12.60;;;6.45;;
51495;SDS011;37572;52.094;4.870;2023-06-01T05:20:51;12.87;;;6.23;;
51495;SDS011;37572;52.094;4.870;2023-06-01T05:23:17;11.97;;;5.97;;
51495;SDS011;37572;52.094;4.870;2023-06-01T05:25:42;16.35;;;6.60;;
51495;SDS011;37572;52.094;4.870;2023-06-01T05:28:07;14.40;;;6.13;;
51495;SDS011;37572;52.094;4.870;2023-06-01T05:30:32;12.10;;;5.53;;
51495;SDS011;37572;52.094;4.870;2023-06-01T05:32:59;13.07;;;6.57;;
51495;SDS011;37572;52.094;4.870;2023-06-01T05:35:24;12.30;;;6.13;;
51495;SDS011;37572;52.094;4.870;2023-06-01T05:37:49;12.33;;;6.23;;
51495;SDS011;37572;52.094;4.870;2023-06-01T05:40:15;15.30;;;7.07;;
51495;SDS011;37572;52.094;4.870;2023-06-01T05:42:40;12.25;;;5.80;;
51495;SDS011;37572;52.094;4.870;2023-06-01T05:45:06;12.85;;;6.38;;
51495;SDS011;37572;52.094;4.870;2023-06-01T05:47:31;12.27;;;6.75;;
51495;SDS011;37572;52.094;4.870;2023-06-01T05:49:57;14.40;;;7.70;;
51495;SDS011;37572;52.094;4.870;2023-06-01T05:52:22;15.80;;;7.77;;
51495;SDS011;37572;52.094;4.870;2023-06-01T05:54:48;13.98;;;7.03;;
51495;SDS011;37572;52.094;4.870;2023-06-01T05:57:14;15.07;;;6.25;;
51495;SDS011;37572;52.094;4.870;2023-06-01T05:59:39;12.57;;;6.00;;
51495;SDS011;37572;52.094;4.870;2023-06-01T06:02:04;15.10;;;7.23;;
51495;SDS011;37572;52.094;4.870;2023-06-01T06:04:30;14.18;;;6.32;;
51495;SDS011;37572;52.094;4.870;2023-06-01T06:06:55;12.23;;;5.20;;
51495;SDS011;37572;52.094;4.870;2023-06-01T06:09:21;9.80;;;5.37;;
51495;SDS011;37572;52.094;4.870;2023-06-01T06:11:46;10.57;;;5.73;;
51495;SDS011;37572;52.094;4.870;2023-06-01T06:14:11;12.88;;;6.20;;
51495;SDS011;37572;52.094;4.870;2023-06-01T06:16:38;10.90;;;5.45;;
51495;SDS011;37572;52.094;4.870;2023-06-01T06:19:04;10.90;;;5.28;;
51495;SDS011;37572;52.094;4.870;2023-06-01T06:21:30;11.15;;;5.78;;
51495;SDS011;37572;52.094;4.870;2023-06-01T06:23:56;9.20;;;5.38;;
51495;SDS011;37572;52.094;4.870;2023-06-01T06:26:24;10.65;;;5.22;;
51495;SDS011;37572;52.094;4.870;2023-06-01T06:28:51;10.55;;;5.95;;
51495;SDS011;37572;52.094;4.870;2023-06-01T06:31:16;12.50;;;5.47;;
51495;SDS011;37572;52.094;4.870;2023-06-01T06:33:42;10.40;;;4.73;;
51495;SDS011;37572;52.094;4.870;2023-06-01T06:36:07;10.93;;;5.32;;
51495;SDS011;37572;52.094;4.870;2023-06-01T06:38:33;8.57;;;4.22;;
51495;SDS011;37572;52.094;4.870;2023-06-01T06:40:58;8.40;;;4.93;;
51495;SDS011;37572;52.094;4.870;2023-06-01T06:43:23;10.63;;;4.88;;
51495;SDS011;37572;52.094;4.870;2023-06-01T06:45:49;12.38;;;5.15;;
51495;SDS011;37572;52.094;4.870;2023-06-01T06:48:15;10.73;;;4.63;;
51495;SDS011;37572;52.094;4.870;2023-06-01T06:50:40;11.80;;;5.70;;
51495;SDS011;37572;52.094;4.870;2023-06-01T06:53:09;14.93;;;6.40;;
51495;SDS011;37572;52.094;4.870;2023-06-01T06:55:34;13.02;;;5.15;;
51495;SDS011;37572;52.094;4.870;2023-06-01T06:58:00;9.52;;;4.57;;
51495;SDS011;37572;52.094;4.870;2023-06-01T07:00:25;12.10;;;5.07;;
51495;SDS011;37572;52.094;4.870;2023-06-01T07:02:52;8.48;;;5.57;;
51495;SDS011;37572;52.094;4.870;2023-06-01T07:05:17;10.57;;;5.30;;
51495;SDS011;37572;52.094;4.870;2023-06-01T07:07:43;10.65;;;4.82;;
51495;SDS011;37572;52.094;4.870;2023-06-01T07:10:08;13.43;;;4.93;;
51495;SDS011;37572;52.094;4.870;2023-06-01T07:12:33;10.68;;;5.15;;
51495;SDS011;37572;52.094;4.870;2023-06-01T07:14:59;12.70;;;6.70;;
51495;SDS011;37572;52.094;4.870;2023-06-01T07:17:26;9.27;;;4.82;;
51495;SDS011;37572;52.094;4.870;2023-06-01T07:19:52;8.00;;;4.55;;
51495;SDS011;37572;52.094;4.870;2023-06-01T07:22:17;9.70;;;4.77;;
51495;SDS011;37572;52.094;4.870;2023-06-01T07:24:42;7.83;;;5.17;;
51495;SDS011;37572;52.094;4.870;2023-06-01T07:27:09;7.85;;;4.63;;
51495;SDS011;37572;52.094;4.870;2023-06-01T07:29:35;9.77;;;5.40;;
51495;SDS011;37572;52.094;4.870;2023-06-01T07:32:01;8.43;;;3.97;;
51495;SDS011;37572;52.094;4.870;2023-06-01T07:34:26;6.25;;;4.18;;
51495;SDS011;37572;52.094;4.870;2023-06-01T07:36:52;9.02;;;4.00;;
51495;SDS011;37572;52.094;4.870;2023-06-01T07:39:18;9.52;;;4.63;;
51495;SDS011;37572;52.094;4.870;2023-06-01T07:41:44;11.32;;;5.20;;
51495;SDS011;37572;52.094;4.870;2023-06-01T07:44:10;9.23;;;4.90;;
51495;SDS011;37572;52.094;4.870;2023-06-01T07:46:35;7.85;;;4.32;;
51495;SDS011;37572;52.094;4.870;2023-06-01T07:49:01;9.50;;;4.28;;
51495;SDS011;37572;52.094;4.870;2023-06-01T07:51:28;9.00;;;4.93;;
51495;SDS011;37572;52.094;4.870;2023-06-01T07:53:54;7.78;;;4.22;;
51495;SDS011;37572;52.094;4.870;2023-06-01T07:56:22;6.18;;;3.78;;
51495;SDS011;37572;52.094;4.870;2023-06-01T07:58:51;7.13;;;4.70;;
51495;SDS011;37572;52.094;4.870;2023-06-01T08:01:17;7.05;;;3.75;;
51495;SDS011;37572;52.094;4.870;2023-06-01T08:03:43;8.70;;;4.43;;
51495;SDS011;37572;52.094;4.870;2023-06-01T08:06:09;9.18;;;3.92;;
51495;SDS011;37572;52.094;4.870;2023-06-01T08:08:34;10.13;;;4.18;;
51495;SDS011;37572;52.094;4.870;2023-06-01T08:11:00;8.20;;;4.22;;
51495;SDS011;37572;52.094;4.870;2023-06-01T08:13:25;6.90;;;3.45;;
51495;SDS011;37572;52.094;4.870;2023-06-01T08:15:51;8.50;;;4.03;;
51495;SDS011;37572;52.094;4.870;2023-06-01T08:18:17;9.55;;;3.83;;
51495;SDS011;37572;52.094;4.870;2023-06-01T08:20:44;7.38;;;4.43;;
51495;SDS011;37572;52.094;4.870;2023-06-01T08:23:10;7.63;;;4.38;;
51495;SDS011;37572;52.094;4.870;2023-06-01T08:25:36;7.20;;;4.32;;
51495;SDS011;37572;52.094;4.870;2023-06-01T08:28:01;8.63;;;4.18;;
51495;SDS011;37572;52.094;4.870;2023-06-01T08:30:27;9.27;;;4.78;;
51495;SDS011;37572;52.094;4.870;2023-06-01T08:32:52;8.95;;;4.22;;
51495;SDS011;37572;52.094;4.870;2023-06-01T08:35:18;8.57;;;4.80;;
51495;SDS011;37572;52.094;4.870;2023-06-01T08:37:44;8.30;;;4.18;;
51495;SDS011;37572;52.094;4.870;2023-06-01T08:40:11;7.53;;;3.47;;
51495;SDS011;37572;52.094;4.870;2023-06-01T08:42:39;7.63;;;3.42;;
51495;SDS011;37572;52.094;4.870;2023-06-01T08:45:10;6.63;;;4.03;;
51495;SDS011;37572;52.094;4.870;2023-06-01T08:47:37;8.30;;;4.22;;
51495;SDS011;37572;52.094;4.870;2023-06-01T08:50:03;6.65;;;4.10;;
51495;SDS011;37572;52.094;4.870;2023-06-01T08:52:29;9.10;;;4.80;;
51495;SDS011;37572;52.094;4.870;2023-06-01T08:55:00;8.18;;;4.10;;
51495;SDS011;37572;52.094;4.870;2023-06-01T08:57:29;7.22;;;3.63;;
51495;SDS011;37572;52.094;4.870;2023-06-01T08:59:56;7.43;;;3.70;;
51495;SDS011;37572;52.094;4.870;2023-06-01T09:02:22;8.68;;;4.57;;
51495;SDS011;37572;52.094;4.870;2023-06-01T09:04:48;7.55;;;4.40;;
51495;SDS011;37572;52.094;4.870;2023-06-01T09:07:14;10.52;;;5.13;;
51495;SDS011;37572;52.094;4.870;2023-06-01T09:09:39;8.15;;;4.75;;
51495;SDS011;37572;52.094;4.870;2023-06-01T09:14:49;7.78;;;3.85;;
51495;SDS011;37572;52.094;4.870;2023-06-01T09:17:23;7.68;;;4.00;;
51495;SDS011;37572;52.094;4.870;2023-06-01T09:19:50;8.02;;;4.60;;
51495;SDS011;37572;52.094;4.870;2023-06-01T09:22:19;6.25;;;3.90;;
51495;SDS011;37572;52.094;4.870;2023-06-01T09:24:54;7.23;;;4.07;;
51495;SDS011;37572;52.094;4.870;2023-06-01T09:27:24;7.75;;;4.25;;
51495;SDS011;37572;52.094;4.870;2023-06-01T09:29:54;7.72;;;4.63;;
51495;SDS011;37572;52.094;4.870;2023-06-01T09:32:20;7.70;;;4.10;;
51495;SDS011;37572;52.094;4.870;2023-06-01T09:34:49;7.93;;;4.32;;
51495;SDS011;37572;52.094;4.870;2023-06-01T09:37:14;10.13;;;4.07;;
51495;SDS011;37572;52.094;4.870;2023-06-01T09:39:40;8.23;;;4.30;;
51495;SDS011;37572;52.094;4.870;2023-06-01T09:42:05;8.38;;;4.57;;
51495;SDS011;37572;52.094;4.870;2023-06-01T09:44:32;8.20;;;4.03;;
51495;SDS011;37572;52.094;4.870;2023-06-01T09:47:08;7.45;;;3.65;;
51495;SDS011;37572;52.094;4.870;2023-06-01T09:49:40;7.95;;;4.18;;
51495;SDS011;37572;52.094;4.870;2023-06-01T09:54:38;8.07;;;4.97;;
51495;SDS011;37572;52.094;4.870;2023-06-01T09:57:05;8.85;;;5.20;;
51495;SDS011;37572;52.094;4.870;2023-06-01T09:59:38;8.88;;;4.68;;
51495;SDS011;37572;52.094;4.870;2023-06-01T10:02:04;8.68;;;6.05;;
51495;SDS011;37572;52.094;4.870;2023-06-01T10:04:31;9.52;;;4.88;;
51495;SDS011;37572;52.094;4.870;2023-06-01T10:06:59;7.43;;;5.05;;
51495;SDS011;37572;52.094;4.870;2023-06-01T10:09:25;8.10;;;5.30;;
51495;SDS011;37572;52.094;4.870;2023-06-01T10:11:52;9.45;;;5.88;;
51495;SDS011;37572;52.094;4.870;2023-06-01T10:14:23;9.77;;;5.38;;
51495;SDS011;37572;52.094;4.870;2023-06-01T10:16:50;9.30;;;5.50;;
51495;SDS011;37572;52.094;4.870;2023-06-01T10:19:17;8.85;;;5.07;;
51495;SDS011;37572;52.094;4.870;2023-06-01T10:21:44;9.95;;;5.13;;
51495;SDS011;37572;52.094;4.870;2023-06-01T10:24:10;10.73;;;6.00;;
51495;SDS011;37572;52.094;4.870;2023-06-01T10:26:42;8.95;;;4.75;;
51495;SDS011;37572;52.094;4.870;2023-06-01T10:29:15;10.15;;;5.47;;
51495;SDS011;37572;52.094;4.870;2023-06-01T10:31:43;10.25;;;6.03;;
51495;SDS011;37572;52.094;4.870;2023-06-01T10:34:09;9.70;;;4.82;;
51495;SDS011;37572;52.094;4.870;2023-06-01T10:41:49;11.60;;;6.20;;
51495;SDS011;37572;52.094;4.870;2023-06-01T10:44:48;8.93;;;6.15;;
51495;SDS011;37572;52.094;4.870;2023-06-01T10:52:23;9.13;;;5.97;;
51495;SDS011;37572;52.094;4.870;2023-06-01T11:00:11;9.47;;;5.80;;
51495;SDS011;37572;52.094;4.870;2023-06-01T11:02:53;10.45;;;5.85;;
51495;SDS011;37572;52.094;4.870;2023-06-01T11:08:06;9.48;;;5.25;;
51495;SDS011;37572;52.094;4.870;2023-06-01T11:13:22;10.98;;;6.35;;
51495;SDS011;37572;52.094;4.870;2023-06-01T11:21:23;10.07;;;5.78;;
51495;SDS011;37572;52.094;4.870;2023-06-01T11:26:34;9.48;;;5.47;;
51495;SDS011;37572;52.094;4.870;2023-06-01T11:29:08;12.00;;;6.20;;
51495;SDS011;37572;52.094;4.870;2023-06-01T11:31:42;10.27;;;5.22;;
51495;SDS011;37572;52.094;4.870;2023-06-01T11:34:11;9.82;;;4.85;;
51495;SDS011;37572;52.094;4.870;2023-06-01T11:36:39;11.55;;;6.05;;
51495;SDS011;37572;52.094;4.870;2023-06-01T11:39:15;8.25;;;5.15;;
51495;SDS011;37572;52.094;4.870;2023-06-01T11:41:48;10.93;;;6.00;;
51495;SDS011;37572;52.094;4.870;2023-06-01T11:44:34;11.02;;;4.72;;
51495;SDS011;37572;52.094;4.870;2023-06-01T11:47:04;8.65;;;6.18;;
51495;SDS011;37572;52.094;4.870;2023-06-01T11:49:46;11.02;;;5.45;;
51495;SDS011;37572;52.094;4.870;2023-06-01T11:52:16;8.90;;;5.57;;
51495;SDS011;37572;52.094;4.870;2023-06-01T11:54:43;9.02;;;5.15;;
51495;SDS011;37572;52.094;4.870;2023-06-01T11:57:08;9.48;;;5.32;;
51495;SDS011;37572;52.094;4.870;2023-06-01T11:59:38;9.45;;;4.95;;
51495;SDS011;37572;52.094;4.870;2023-06-01T12:05:04;9.45;;;4.53;;
51495;SDS011;37572;52.094;4.870;2023-06-01T12:07:44;9.07;;;5.82;;
51495;SDS011;37572;52.094;4.870;2023-06-01T12:10:15;8.30;;;5.13;;
51495;SDS011;37572;52.094;4.870;2023-06-01T12:12:42;7.53;;;4.50;;
51495;SDS011;37572;52.094;4.870;2023-06-01T12:15:11;11.43;;;5.03;;
51495;SDS011;37572;52.094;4.870;2023-06-01T12:17:45;9.32;;;4.47;;
51495;SDS011;37572;52.094;4.870;2023-06-01T12:20:27;8.77;;;3.45;;
51495;SDS011;37572;52.094;4.870;2023-06-01T12:23:13;6.47;;;3.67;;
51495;SDS011;37572;52.094;4.870;2023-06-01T12:25:50;6.95;;;3.85;;
51495;SDS011;37572;52.094;4.870;2023-06-01T12:28:17;6.28;;;4.35;;
51495;SDS011;37572;52.094;4.870;2023-06-01T12:30:43;7.60;;;3.63;;
51495;SDS011;37572;52.094;4.870;2023-06-01T12:33:09;4.82;;;4.07;;
51495;SDS011;37572;52.094;4.870;2023-06-01T12:35:55;6.05;;;3.42;;
51495;SDS011;37572;52.094;4.870;2023-06-01T12:38:21;5.97;;;4.00;;
51495;SDS011;37572;52.094;4.870;2023-06-01T12:40:47;5.45;;;2.90;;
51495;SDS011;37572;52.094;4.870;2023-06-01T12:43:36;4.55;;;3.08;;
51495;SDS011;37572;52.094;4.870;2023-06-01T12:46:01;4.78;;;3.25;;
51495;SDS011;37572;52.094;4.870;2023-06-01T12:48:30;8.13;;;4.15;;
51495;SDS011;37572;52.094;4.870;2023-06-01T12:51:02;4.25;;;2.88;;
51495;SDS011;37572;52.094;4.870;2023-06-01T12:53:29;5.13;;;3.08;;
51495;SDS011;37572;52.094;4.870;2023-06-01T12:55:55;5.00;;;3.78;;
51495;SDS011;37572;52.094;4.870;2023-06-01T12:58:20;6.18;;;4.20;;
51495;SDS011;37572;52.094;4.870;2023-06-01T13:00:46;5.55;;;3.95;;
51495;SDS011;37572;52.094;4.870;2023-06-01T13:03:11;5.82;;;3.10;;
51495;SDS011;37572;52.094;4.870;2023-06-01T13:05:41;5.60;;;3.30;;
51495;SDS011;37572;52.094;4.870;2023-06-01T13:08:07;4.65;;;3.10;;
51495;SDS011;37572;52.094;4.870;2023-06-01T13:10:33;5.85;;;3.90;;
51495;SDS011;37572;52.094;4.870;2023-06-01T13:12:58;5.30;;;3.35;;
51495;SDS011;37572;52.094;4.870;2023-06-01T13:15:23;5.05;;;3.33;;
51495;SDS011;37572;52.094;4.870;2023-06-01T13:17:49;4.93;;;3.43;;
51495;SDS011;37572;52.094;4.870;2023-06-01T13:20:14;6.20;;;3.63;;
51495;SDS011;37572;52.094;4.870;2023-06-01T13:22:42;6.18;;;3.97;;
51495;SDS011;37572;52.094;4.870;2023-06-01T13:25:08;3.70;;;3.08;;
51495;SDS011;37572;52.094;4.870;2023-06-01T13:27:34;4.47;;;3.38;;
51495;SDS011;37572;52.094;4.870;2023-06-01T13:30:00;5.28;;;3.42;;
51495;SDS011;37572;52.094;4.870;2023-06-01T13:32:26;4.53;;;2.97;;
51495;SDS011;37572;52.094;4.870;2023-06-01T13:34:52;4.57;;;2.75;;
51495;SDS011;37572;52.094;4.870;2023-06-01T13:37:18;4.95;;;2.90;;
51495;SDS011;37572;52.094;4.870;2023-06-01T13:39:43;4.60;;;2.13;;
51495;SDS011;37572;52.094;4.870;2023-06-01T13:42:08;3.70;;;3.22;;
51495;SDS011;37572;52.094;4.870;2023-06-01T13:44:34;4.57;;;3.05;;
51495;SDS011;37572;52.094;4.870;2023-06-01T13:46:59;3.95;;;2.45;;
51495;SDS011;37572;52.094;4.870;2023-06-01T13:49:24;3.55;;;2.35;;
51495;SDS011;37572;52.094;4.870;2023-06-01T13:51:49;4.20;;;2.37;;
51495;SDS011;37572;52.094;4.870;2023-06-01T13:54:15;3.03;;;2.60;;
51495;SDS011;37572;52.094;4.870;2023-06-01T13:56:41;3.38;;;1.95;;
51495;SDS011;37572;52.094;4.870;2023-06-01T13:59:06;3.85;;;1.88;;
51495;SDS011;37572;52.094;4.870;2023-06-01T14:01:31;3.47;;;2.80;;
51495;SDS011;37572;52.094;4.870;2023-06-01T14:03:57;3.80;;;1.93;;
51495;SDS011;37572;52.094;4.870;2023-06-01T14:06:22;4.30;;;2.43;;
51495;SDS011;37572;52.094;4.870;2023-06-01T14:08:47;4.50;;;2.10;;
51495;SDS011;37572;52.094;4.870;2023-06-01T14:11:14;4.10;;;2.15;;
51495;SDS011;37572;52.094;4.870;2023-06-01T14:13:39;4.20;;;2.65;;
51495;SDS011;37572;52.094;4.870;2023-06-01T14:16:04;4.15;;;2.35;;
51495;SDS011;37572;52.094;4.870;2023-06-01T14:18:30;4.75;;;2.60;;
51495;SDS011;37572;52.094;4.870;2023-06-01T14:20:55;4.03;;;2.10;;
51495;SDS011;37572;52.094;4.870;2023-06-01T14:23:21;3.38;;;1.90;;
51495;SDS011;37572;52.094;4.870;2023-06-01T14:25:47;3.90;;;2.17;;
51495;SDS011;37572;52.094;4.870;2023-06-01T14:28:12;3.30;;;2.35;;
51495;SDS011;37572;52.094;4.870;2023-06-01T14:30:38;4.43;;;2.20;;
51495;SDS011;37572;52.094;4.870;2023-06-01T14:33:04;2.67;;;1.83;;
51495;SDS011;37572;52.094;4.870;2023-06-01T14:35:30;3.33;;;2.55;;
51495;SDS011;37572;52.094;4.870;2023-06-01T14:37:55;6.05;;;2.45;;
51495;SDS011;37572;52.094;4.870;2023-06-01T14:40:20;2.78;;;2.25;;
51495;SDS011;37572;52.094;4.870;2023-06-01T14:42:46;3.00;;;2.20;;
51495;SDS011;37572;52.094;4.870;2023-06-01T14:45:11;2.95;;;1.95;;
51495;SDS011;37572;52.094;4.870;2023-06-01T14:47:37;3.30;;;1.80;;
51495;SDS011;37572;52.094;4.870;2023-06-01T14:50:02;3.78;;;2.53;;
51495;SDS011;37572;52.094;4.870;2023-06-01T14:52:28;3.15;;;2.22;;
51495;SDS011;37572;52.094;4.870;2023-06-01T14:54:54;4.28;;;2.90;;
51495;SDS011;37572;52.094;4.870;2023-06-01T14:57:20;3.55;;;2.22;;
51495;SDS011;37572;52.094;4.870;2023-06-01T14:59:45;3.83;;;2.55;;
51495;SDS011;37572;52.094;4.870;2023-06-01T15:02:11;4.80;;;3.53;;
51495;SDS011;37572;52.094;4.870;2023-06-01T15:04:36;4.27;;;2.83;;
51495;SDS011;37572;52.094;4.870;2023-06-01T15:07:01;5.73;;;2.60;;
51495;SDS011;37572;52.094;4.870;2023-06-01T15:09:27;6.85;;;2.97;;
51495;SDS011;37572;52.094;4.870;2023-06-01T15:11:52;5.30;;;3.10;;
51495;SDS011;37572;52.094;4.870;2023-06-01T15:14:17;7.90;;;3.35;;
51495;SDS011;37572;52.094;4.870;2023-06-01T15:16:43;6.30;;;3.40;;
51495;SDS011;37572;52.094;4.870;2023-06-01T15:19:09;4.47;;;2.38;;
51495;SDS011;37572;52.094;4.870;2023-06-01T15:21:34;6.65;;;3.00;;
51495;SDS011;37572;52.094;4.870;2023-06-01T15:24:00;7.50;;;3.35;;
51495;SDS011;37572;52.094;4.870;2023-06-01T15:26:26;7.20;;;3.53;;
51495;SDS011;37572;52.094;4.870;2023-06-01T15:28:51;5.03;;;3.28;;